Time;durP1;ratioP1;P1;durP2;ratioP2;P2;SDS_P1;SDS_P2;PMS_P1;PMS_P2;Temp;Humidity;BMP_temperature;BMP_pressure;BME280_temperature;BME280_humidity;BME280_pressure;Samples;Min_cycle;Max_cycle;Signal;HPM_P1;HPM_P2
2022/06/20 00:01:03;;;;;;;14.10;12.80;;;;;;;;;;5026382;28;20971;-70
2022/06/20 00:03:37;;;;;;;13.70;12.48;;;;;;;;;;5023868;28;20442;-70
2022/06/20 00:06:04;;;;;;;14.40;13.18;;;;;;;;;;5030113;28;20930;-69
2022/06/20 00:08:31;;;;;;;14.52;13.32;;;;;;;;;;5030308;28;20442;-70
2022/06/20 00:10:58;;;;;;;13.98;12.77;;;;;;;;;;5029917;28;20427;-71
2022/06/20 00:13:27;;;;;;;12.77;11.68;;;;;;;;;;5029823;28;20434;-72
2022/06/20 00:15:56;;;;;;;13.10;12.00;;;;;;;;;;5029092;28;20442;-70
2022/06/20 00:18:25;;;;;;;12.10;11.20;;;;;;;;;;5029740;28;20520;-69
2022/06/20 00:20:52;;;;;;;12.98;11.55;;;;;;;;;;5022273;28;20432;-69
2022/06/20 00:23:19;;;;;;;12.50;11.40;;;;;;;;;;5030570;28;20440;-69
2022/06/20 00:25:47;;;;;;;12.88;11.70;;;;;;;;;;5030268;28;20450;-70
2022/06/20 00:28:14;;;;;;;12.40;11.48;;;;;;;;;;5031189;28;20430;-71
2022/06/20 00:30:42;;;;;;;12.00;11.00;;;;;;;;;;5018537;28;20434;-69
2022/06/20 00:33:09;;;;;;;12.23;11.32;;;;;;;;;;5029383;28;20435;-70
2022/06/20 00:35:38;;;;;;;12.13;11.23;;;;;;;;;;5029859;28;20434;-71
2022/06/20 00:38:07;;;;;;;13.30;12.30;;;;;;;;;;5029590;28;20415;-69
2022/06/20 00:40:36;;;;;;;14.50;13.30;;;;;;;;;;5028488;28;20446;-70
2022/06/20 00:43:03;;;;;;;13.38;12.18;;;;;;;;;;5030871;28;20425;-69
2022/06/20 00:45:33;;;;;;;13.70;12.50;;;;;;;;;;5028581;28;20434;-72
2022/06/20 00:48:04;;;;;;;15.10;13.80;;;;;;;;;;5030193;28;20750;-69
2022/06/20 00:50:33;;;;;;;13.30;12.10;;;;;;;;;;5029135;28;20435;-70
2022/06/20 00:53:04;;;;;;;13.25;11.95;;;;;;;;;;5029414;28;20849;-71
2022/06/20 00:55:33;;;;;;;12.73;11.73;;;;;;;;;;5026132;28;20454;-70
2022/06/20 00:58:03;;;;;;;12.20;11.15;;;;;;;;;;5029485;28;20421;-71
2022/06/20 01:00:33;;;;;;;12.15;11.15;;;;;;;;;;5029110;28;20438;-70
2022/06/20 01:03:07;;;;;;;12.60;11.47;;;;;;;;;;5029238;28;20427;-70
2022/06/20 01:05:39;;;;;;;13.30;12.10;;;;;;;;;;5028685;28;20437;-71
2022/06/20 01:08:10;;;;;;;11.68;10.68;;;;;;;;;;5024125;28;20416;-70
2022/06/20 01:10:42;;;;;;;11.35;10.20;;;;;;;;;;5016857;28;20427;-69
2022/06/20 01:13:12;;;;;;;10.82;9.75;;;;;;;;;;5029398;28;20419;-69
2022/06/20 01:15:41;;;;;;;11.30;10.20;;;;;;;;;;5026751;28;20438;-68
2022/06/20 01:18:15;;;;;;;13.88;12.57;;;;;;;;;;5029880;28;20964;-69
2022/06/20 01:20:44;;;;;;;15.48;14.07;;;;;;;;;;5027899;28;20461;-71
2022/06/20 01:23:17;;;;;;;18.65;17.05;;;;;;;;;;5028513;28;20423;-70
2022/06/20 01:25:48;;;;;;;20.70;18.70;;;;;;;;;;5028018;28;20933;-71
2022/06/20 01:28:19;;;;;;;19.92;18.02;;;;;;;;;;5027127;28;20924;-70
2022/06/20 01:30:47;;;;;;;20.05;18.05;;;;;;;;;;5027662;28;21058;-69
2022/06/20 01:33:16;;;;;;;23.77;21.20;;;;;;;;;;5022094;28;20435;-70
2022/06/20 01:38:29;;;;;;;19.87;17.77;;;;;;;;;;5028033;28;20417;-70
2022/06/20 01:43:43;;;;;;;22.70;20.40;;;;;;;;;;5028179;28;20422;-70
2022/06/20 01:46:12;;;;;;;23.75;21.45;;;;;;;;;;5027489;28;20445;-68
2022/06/20 01:48:40;;;;;;;23.80;21.40;;;;;;;;;;5028025;28;20435;-69
2022/06/20 01:51:09;;;;;;;30.13;24.70;;;;;;;;;;5028593;28;20438;-70
2022/06/20 01:53:37;;;;;;;24.40;22.10;;;;;;;;;;5027026;28;20435;-70
2022/06/20 01:56:05;;;;;;;25.80;23.20;;;;;;;;;;5028109;28;20442;-71
2022/06/20 01:58:35;;;;;;;25.67;22.95;;;;;;;;;;5027926;28;20446;-70
2022/06/20 02:01:05;;;;;;;24.52;22.02;;;;;;;;;;5026718;28;20532;-69
2022/06/20 02:03:33;;;;;;;25.27;22.87;;;;;;;;;;5031084;28;20465;-71
2022/06/20 02:06:01;;;;;;;25.75;23.15;;;;;;;;;;5039858;28;20435;-69
2022/06/20 02:08:28;;;;;;;26.58;23.77;;;;;;;;;;5030556;28;20448;-72
2022/06/20 02:10:57;;;;;;;27.50;24.65;;;;;;;;;;5028002;28;20438;-68
2022/06/20 02:13:25;;;;;;;24.67;22.13;;;;;;;;;;5023453;28;20441;-70
2022/06/20 02:15:55;;;;;;;22.92;20.70;;;;;;;;;;5016726;28;20541;-70
2022/06/20 02:18:24;;;;;;;23.10;20.80;;;;;;;;;;5027947;28;20481;-70
2022/06/20 02:20:52;;;;;;;20.63;18.63;;;;;;;;;;5028612;28;20419;-69
2022/06/20 02:23:21;;;;;;;21.40;19.20;;;;;;;;;;5027569;28;20763;-69
2022/06/20 02:25:49;;;;;;;21.50;19.40;;;;;;;;;;5028360;28;20422;-70
2022/06/20 02:28:19;;;;;;;22.42;20.13;;;;;;;;;;5024952;28;20442;-72
2022/06/20 02:30:46;;;;;;;22.30;20.00;;;;;;;;;;5026911;28;20435;-70
2022/06/20 02:33:16;;;;;;;23.27;21.08;;;;;;;;;;5026071;28;20439;-70
2022/06/20 02:35:45;;;;;;;25.95;23.25;;;;;;;;;;5028581;28;20509;-69
2022/06/20 02:38:13;;;;;;;26.15;23.65;;;;;;;;;;5027184;28;20431;-70
2022/06/20 02:40:42;;;;;;;28.63;25.73;;;;;;;;;;5020636;28;20422;-69
2022/06/20 02:43:13;;;;;;;32.35;28.00;;;;;;;;;;5025963;28;20439;-69
2022/06/20 02:45:41;;;;;;;29.13;26.30;;;;;;;;;;5026204;28;20431;-70
2022/06/20 02:48:10;;;;;;;30.60;27.35;;;;;;;;;;5026825;28;20939;-69
2022/06/20 02:50:39;;;;;;;28.55;25.65;;;;;;;;;;5028104;28;20430;-70
2022/06/20 02:53:09;;;;;;;27.95;25.25;;;;;;;;;;5027175;28;20442;-71
2022/06/20 02:55:37;;;;;;;28.98;26.08;;;;;;;;;;5028898;28;20423;-70
2022/06/20 02:58:07;;;;;;;28.85;25.85;;;;;;;;;;5025677;28;20918;-72
2022/06/20 03:00:37;;;;;;;28.00;25.23;;;;;;;;;;5026043;28;20438;-70
2022/06/20 03:03:06;;;;;;;27.23;24.65;;;;;;;;;;5026944;28;20517;-71
2022/06/20 03:05:33;;;;;;;24.15;21.67;;;;;;;;;;5026946;28;20458;-70
2022/06/20 03:08:00;;;;;;;22.58;20.48;;;;;;;;;;5027359;28;20775;-70
2022/06/20 03:10:33;;;;;;;24.85;22.45;;;;;;;;;;5020935;28;20439;-71
2022/06/20 03:13:00;;;;;;;25.90;23.30;;;;;;;;;;5022117;28;20439;-71
2022/06/20 03:15:27;;;;;;;21.90;20.00;;;;;;;;;;5025833;28;20956;-70
2022/06/20 03:17:57;;;;;;;22.83;20.63;;;;;;;;;;5026237;28;20442;-69
2022/06/20 03:20:25;;;;;;;22.73;20.73;;;;;;;;;;5026903;28;21644;-70
2022/06/20 03:22:55;;;;;;;20.58;18.67;;;;;;;;;;5025533;28;20440;-70
2022/06/20 03:25:23;;;;;;;18.77;17.13;;;;;;;;;;5020884;28;20812;-71
2022/06/20 03:27:52;;;;;;;19.90;18.20;;;;;;;;;;5025838;28;20453;-72
2022/06/20 03:30:25;;;;;;;19.10;17.40;;;;;;;;;;5023789;28;20559;-69
2022/06/20 03:32:53;;;;;;;19.30;17.50;;;;;;;;;;5024921;28;20435;-70
2022/06/20 03:35:20;;;;;;;16.27;14.82;;;;;;;;;;5025884;28;21058;-70
2022/06/20 03:37:47;;;;;;;13.65;12.35;;;;;;;;;;5023705;28;20435;-70
2022/06/20 03:40:14;;;;;;;13.50;12.30;;;;;;;;;;5027122;28;20427;-70
2022/06/20 03:42:42;;;;;;;14.27;12.98;;;;;;;;;;5025729;28;20431;-71
2022/06/20 03:45:12;;;;;;;16.58;14.98;;;;;;;;;;5026383;28;20457;-71
2022/06/20 03:47:43;;;;;;;15.55;14.15;;;;;;;;;;5025814;28;20427;-71
2022/06/20 03:50:12;;;;;;;15.90;14.60;;;;;;;;;;5020679;28;20430;-70
2022/06/20 03:52:41;;;;;;;16.55;15.15;;;;;;;;;;5019365;28;20455;-70
2022/06/20 03:55:11;;;;;;;15.10;13.70;;;;;;;;;;5026523;28;20793;-70
2022/06/20 03:57:41;;;;;;;16.23;14.80;;;;;;;;;;5024011;28;20430;-69
2022/06/20 04:00:11;;;;;;;18.90;17.10;;;;;;;;;;5022686;28;20434;-70
2022/06/20 04:02:43;;;;;;;17.45;16.05;;;;;;;;;;5026092;28;20852;-70
2022/06/20 04:05:14;;;;;;;18.02;16.42;;;;;;;;;;5024452;28;20484;-69
2022/06/20 04:07:44;;;;;;;18.15;16.55;;;;;;;;;;5026044;28;20431;-69
2022/06/20 04:13:01;;;;;;;17.08;15.57;;;;;;;;;;5024794;28;20448;-69
2022/06/20 04:15:31;;;;;;;16.88;15.38;;;;;;;;;;5024438;28;20913;-69
2022/06/20 04:20:54;;;;;;;17.88;16.15;;;;;;;;;;5003498;28;20422;-70
2022/06/20 04:23:24;;;;;;;16.38;14.98;;;;;;;;;;5028932;28;20429;-70
2022/06/20 04:25:55;;;;;;;16.53;15.10;;;;;;;;;;5028828;28;20439;-69
2022/06/20 04:28:24;;;;;;;15.38;14.02;;;;;;;;;;5025542;28;20411;-69
2022/06/20 04:30:54;;;;;;;17.15;15.75;;;;;;;;;;5023357;28;20431;-70
2022/06/20 04:33:25;;;;;;;17.13;15.73;;;;;;;;;;5029438;28;20441;-70
2022/06/20 04:35:59;;;;;;;17.77;16.30;;;;;;;;;;5031240;28;20454;-69
2022/06/20 04:38:30;;;;;;;19.55;17.85;;;;;;;;;;5030046;28;20427;-70
2022/06/20 04:41:01;;;;;;;19.85;18.00;;;;;;;;;;5030051;28;20978;-70
2022/06/20 04:43:32;;;;;;;18.93;17.23;;;;;;;;;;5028043;28;20495;-70
2022/06/20 04:46:00;;;;;;;19.25;17.38;;;;;;;;;;5025841;28;20455;-70
2022/06/20 04:48:29;;;;;;;19.10;17.40;;;;;;;;;;5027957;28;20426;-72
2022/06/20 04:50:58;;;;;;;18.35;16.75;;;;;;;;;;5019261;28;20500;-71
2022/06/20 04:53:27;;;;;;;18.43;16.73;;;;;;;;;;5030228;28;20419;-70
2022/06/20 04:55:55;;;;;;;19.50;17.70;;;;;;;;;;5029505;28;20431;-69
2022/06/20 04:58:24;;;;;;;17.95;16.35;;;;;;;;;;5028200;28;20437;-71
2022/06/20 05:00:52;;;;;;;17.95;16.25;;;;;;;;;;5025828;28;20519;-70
2022/06/20 05:03:21;;;;;;;17.33;15.82;;;;;;;;;;5027278;28;20426;-70
2022/06/20 05:05:51;;;;;;;16.20;14.70;;;;;;;;;;5028997;28;20415;-71
2022/06/20 05:08:21;;;;;;;18.20;16.50;;;;;;;;;;5027031;28;20960;-71
2022/06/20 05:10:51;;;;;;;18.50;16.80;;;;;;;;;;5031196;28;21101;-70
2022/06/20 05:13:20;;;;;;;17.92;16.33;;;;;;;;;;5028016;28;20427;-70
2022/06/20 05:15:48;;;;;;;16.63;15.18;;;;;;;;;;5027542;28;20525;-71
2022/06/20 05:18:18;;;;;;;17.52;16.02;;;;;;;;;;5027440;28;20438;-70
2022/06/20 05:20:46;;;;;;;17.95;16.05;;;;;;;;;;5026515;28;20442;-70
2022/06/20 05:23:17;;;;;;;16.10;14.80;;;;;;;;;;5057024;22;20582;-68
2022/06/20 05:25:44;;;;;;;16.23;14.93;;;;;;;;;;5028403;28;20794;-68
2022/06/20 05:28:12;;;;;;;16.75;15.25;;;;;;;;;;5019146;28;20441;-69
2022/06/20 05:30:41;;;;;;;16.10;14.70;;;;;;;;;;5019033;28;20426;-67
2022/06/20 05:33:16;;;;;;;17.52;15.90;;;;;;;;;;5014932;28;20414;-68
2022/06/20 05:35:46;;;;;;;16.17;14.77;;;;;;;;;;5023203;28;20449;-68
2022/06/20 05:38:18;;;;;;;17.63;16.10;;;;;;;;;;5024471;28;20529;-68
2022/06/20 05:40:48;;;;;;;17.27;15.70;;;;;;;;;;5020262;28;20926;-65
2022/06/20 05:43:20;;;;;;;15.85;14.55;;;;;;;;;;5015568;28;21039;-66
2022/06/20 05:45:49;;;;;;;15.77;14.48;;;;;;;;;;5016884;28;20435;-65
2022/06/20 05:48:16;;;;;;;15.93;14.50;;;;;;;;;;5028342;28;20435;-65
2022/06/20 05:50:47;;;;;;;15.00;13.70;;;;;;;;;;5027565;28;20409;-65
2022/06/20 05:53:23;;;;;;;14.68;13.57;;;;;;;;;;5015746;28;20431;-65
2022/06/20 05:55:51;;;;;;;14.70;13.50;;;;;;;;;;5030925;28;20451;-65
2022/06/20 05:58:19;;;;;;;13.80;12.60;;;;;;;;;;5020003;28;20435;-65
2022/06/20 06:00:47;;;;;;;14.02;12.75;;;;;;;;;;5023657;28;20413;-64
2022/06/20 06:03:16;;;;;;;13.50;12.30;;;;;;;;;;5034784;28;20503;-65
2022/06/20 06:05:45;;;;;;;14.10;12.88;;;;;;;;;;5041120;28;20413;-65
2022/06/20 06:08:15;;;;;;;12.15;11.05;;;;;;;;;;5025398;28;20411;-64
2022/06/20 06:10:46;;;;;;;11.05;10.05;;;;;;;;;;5010701;28;20540;-65
2022/06/20 06:13:17;;;;;;;12.43;11.23;;;;;;;;;;5009349;28;21175;-68
2022/06/20 06:18:30;;;;;;;11.35;10.45;;;;;;;;;;5010501;28;22879;-67
2022/06/20 06:20:57;;;;;;;9.50;8.65;;;;;;;;;;5019283;28;21057;-67
2022/06/20 06:23:24;;;;;;;8.27;7.57;;;;;;;;;;5024498;28;20935;-67
2022/06/20 06:25:52;;;;;;;6.78;6.18;;;;;;;;;;5019971;28;20771;-67
2022/06/20 06:28:22;;;;;;;7.30;6.70;;;;;;;;;;5017614;28;20521;-68
2022/06/20 06:30:52;;;;;;;9.68;7.20;;;;;;;;;;5017707;28;20450;-67
2022/06/20 06:33:22;;;;;;;7.55;6.85;;;;;;;;;;5016502;28;20479;-68
2022/06/20 06:35:52;;;;;;;6.15;5.55;;;;;;;;;;5023498;28;20429;-67
2022/06/20 06:38:22;;;;;;;6.18;5.40;;;;;;;;;;5033733;28;20429;-67
2022/06/20 06:40:50;;;;;;;6.05;5.45;;;;;;;;;;5020946;28;20521;-67
2022/06/20 06:43:20;;;;;;;7.70;5.40;;;;;;;;;;5019097;28;20435;-68
2022/06/20 06:45:49;;;;;;;7.00;5.00;;;;;;;;;;5020662;28;20439;-67
2022/06/20 06:48:18;;;;;;;5.88;4.85;;;;;;;;;;5021566;28;20453;-67
2022/06/20 06:50:48;;;;;;;7.47;5.60;;;;;;;;;;5017675;28;20442;-67
2022/06/20 06:53:18;;;;;;;6.50;5.30;;;;;;;;;;5024283;28;20434;-69
2022/06/20 06:55:48;;;;;;;6.63;5.88;;;;;;;;;;5018320;28;20427;-67
2022/06/20 06:58:19;;;;;;;7.27;6.57;;;;;;;;;;5018873;28;20483;-67
2022/06/20 07:00:50;;;;;;;7.55;5.72;;;;;;;;;;5020735;28;20851;-69
2022/06/20 07:03:18;;;;;;;6.20;5.20;;;;;;;;;;5016945;28;20434;-69
2022/06/20 07:05:50;;;;;;;8.73;5.43;;;;;;;;;;5020362;28;20439;-69
2022/06/20 07:08:19;;;;;;;5.78;5.20;;;;;;;;;;5022477;28;20483;-69
2022/06/20 07:10:49;;;;;;;8.00;5.63;;;;;;;;;;5023747;28;20435;-69
2022/06/20 07:13:22;;;;;;;6.38;5.70;;;;;;;;;;5020413;28;20435;-69
2022/06/20 07:15:53;;;;;;;7.47;5.32;;;;;;;;;;5016876;28;20431;-69
2022/06/20 07:18:28;;;;;;;7.53;5.90;;;;;;;;;;5022154;28;20954;-69
2022/06/20 07:20:55;;;;;;;9.32;6.00;;;;;;;;;;5017919;28;20426;-69
2022/06/20 07:23:22;;;;;;;8.50;6.30;;;;;;;;;;5023928;28;20446;-69
2022/06/20 07:25:51;;;;;;;8.23;6.30;;;;;;;;;;5020035;28;20816;-70
2022/06/20 07:28:23;;;;;;;6.97;5.87;;;;;;;;;;5017234;28;20945;-70
2022/06/20 07:30:54;;;;;;;7.85;6.32;;;;;;;;;;5018110;28;20472;-70
2022/06/20 07:33:24;;;;;;;10.10;7.13;;;;;;;;;;5017054;28;20494;-69
2022/06/20 07:35:53;;;;;;;10.57;7.90;;;;;;;;;;5018847;28;21180;-70
2022/06/20 07:38:21;;;;;;;11.65;8.30;;;;;;;;;;5017685;28;20433;-70
2022/06/20 07:40:51;;;;;;;9.10;8.10;;;;;;;;;;5017047;28;20522;-68
2022/06/20 07:43:22;;;;;;;11.65;8.95;;;;;;;;;;5011217;28;20890;-68
2022/06/20 07:45:50;;;;;;;13.77;9.55;;;;;;;;;;5019362;28;20922;-68
2022/06/20 07:48:21;;;;;;;15.20;11.50;;;;;;;;;;5018544;28;20433;-68
2022/06/20 07:50:50;;;;;;;13.95;11.75;;;;;;;;;;5018931;28;20426;-68
2022/06/20 07:53:20;;;;;;;14.27;12.13;;;;;;;;;;5030299;28;20447;-69
2022/06/20 07:55:50;;;;;;;14.63;12.73;;;;;;;;;;5014186;28;20926;-68
2022/06/20 07:58:18;;;;;;;19.52;13.93;;;;;;;;;;5016078;28;20430;-68
2022/06/20 08:00:48;;;;;;;15.85;13.40;;;;;;;;;;5018346;28;20430;-68
2022/06/20 08:03:18;;;;;;;15.55;14.10;;;;;;;;;;5019199;28;20897;-67
2022/06/20 08:05:49;;;;;;;14.18;12.60;;;;;;;;;;5021676;28;20423;-68
2022/06/20 08:08:18;;;;;;;14.50;12.73;;;;;;;;;;5018061;28;20842;-68
2022/06/20 08:10:48;;;;;;;12.37;10.60;;;;;;;;;;5024255;28;20453;-68
2022/06/20 08:13:17;;;;;;;10.07;8.40;;;;;;;;;;5019642;28;20454;-68
2022/06/20 08:15:48;;;;;;;11.32;7.00;;;;;;;;;;5014536;28;20434;-67
2022/06/20 08:18:15;;;;;;;9.68;6.40;;;;;;;;;;5023142;28;20463;-70
2022/06/20 08:20:46;;;;;;;8.60;5.57;;;;;;;;;;5022868;28;21347;-67
2022/06/20 08:23:17;;;;;;;6.87;5.60;;;;;;;;;;5017839;28;20568;-67
2022/06/20 08:25:50;;;;;;;8.13;6.40;;;;;;;;;;5008894;28;20439;-70
2022/06/20 08:28:19;;;;;;;10.02;6.30;;;;;;;;;;5024827;28;20454;-70
2022/06/20 08:30:49;;;;;;;9.67;6.93;;;;;;;;;;5024764;28;20917;-67
2022/06/20 08:33:18;;;;;;;6.93;5.15;;;;;;;;;;5032905;28;21024;-67
2022/06/20 08:35:47;;;;;;;11.10;5.40;;;;;;;;;;5020226;28;20426;-68
2022/06/20 08:38:18;;;;;;;8.00;5.20;;;;;;;;;;5022857;28;20449;-67
2022/06/20 08:41:00;;;;;;;7.93;4.85;;;;;;;;;;5015882;28;20431;-67
2022/06/20 08:43:35;;;;;;;6.78;4.50;;;;;;;;;;5025819;28;20423;-67
2022/06/20 08:46:17;;;;;;;7.60;5.07;;;;;;;;;;5021069;28;20810;-68
2022/06/20 08:49:01;;;;;;;8.48;4.70;;;;;;;;;;5025010;28;20427;-67
2022/06/20 08:51:42;;;;;;;8.00;5.30;;;;;;;;;;5017715;28;20787;-67
2022/06/20 08:54:24;;;;;;;6.90;5.10;;;;;;;;;;5027500;28;20430;-68
2022/06/20 08:56:56;;;;;;;9.48;4.90;;;;;;;;;;5020081;28;21166;-68
2022/06/20 08:59:31;;;;;;;7.18;4.50;;;;;;;;;;5021795;28;20446;-68
2022/06/20 09:02:05;;;;;;;7.67;4.33;;;;;;;;;;5029591;28;20447;-68
2022/06/20 09:04:47;;;;;;;4.90;3.83;;;;;;;;;;5019738;28;20446;-68
2022/06/20 09:07:21;;;;;;;5.53;3.50;;;;;;;;;;5018423;28;20437;-69
2022/06/20 09:09:59;;;;;;;7.28;3.25;;;;;;;;;;5031095;28;20417;-68
2022/06/20 09:12:40;;;;;;;8.00;3.58;;;;;;;;;;5016075;28;20509;-67
2022/06/20 09:15:16;;;;;;;4.90;3.20;;;;;;;;;;5019671;28;20423;-69
2022/06/20 09:17:51;;;;;;;4.40;3.15;;;;;;;;;;5022686;28;20435;-69
2022/06/20 09:20:22;;;;;;;5.78;3.45;;;;;;;;;;5014532;28;20427;-70
2022/06/20 09:23:02;;;;;;;5.20;3.05;;;;;;;;;;5019452;28;20995;-69
2022/06/20 09:25:34;;;;;;;4.85;2.70;;;;;;;;;;5013773;28;20819;-69
2022/06/20 09:28:08;;;;;;;7.68;3.45;;;;;;;;;;5024565;28;20880;-70
2022/06/20 09:30:39;;;;;;;5.28;2.92;;;;;;;;;;5026482;28;20438;-69
2022/06/20 09:33:24;;;;;;;5.72;2.63;;;;;;;;;;5012573;28;20446;-72
2022/06/20 09:36:00;;;;;;;6.70;3.50;;;;;;;;;;5018478;28;21207;-71
2022/06/20 09:38:41;;;;;;;6.40;3.33;;;;;;;;;;5018260;28;20518;-70
2022/06/20 09:41:12;;;;;;;5.50;3.40;;;;;;;;;;5011627;28;21166;-67
2022/06/20 09:43:42;;;;;;;4.55;2.95;;;;;;;;;;5020889;28;20534;-70
2022/06/20 09:46:15;;;;;;;6.15;3.90;;;;;;;;;;5018726;28;20453;-68
2022/06/20 09:48:47;;;;;;;6.18;3.70;;;;;;;;;;5017599;28;20494;-69
2022/06/20 09:51:17;;;;;;;5.45;3.60;;;;;;;;;;5016729;28;20429;-69
2022/06/20 09:53:53;;;;;;;4.60;2.92;;;;;;;;;;5024938;28;20842;-69
2022/06/20 09:56:23;;;;;;;5.25;3.55;;;;;;;;;;5021209;28;20578;-69
2022/06/20 09:58:56;;;;;;;7.50;3.80;;;;;;;;;;5025107;28;20554;-70
2022/06/20 10:01:27;;;;;;;6.03;3.40;;;;;;;;;;5020118;28;20527;-69
2022/06/20 10:03:56;;;;;;;8.60;3.53;;;;;;;;;;5013911;28;21346;-69
2022/06/20 10:06:28;;;;;;;7.10;3.78;;;;;;;;;;5020191;28;20435;-69
2022/06/20 10:09:01;;;;;;;5.82;4.05;;;;;;;;;;5019061;28;20515;-69
2022/06/20 10:11:31;;;;;;;7.57;4.70;;;;;;;;;;5017631;28;20481;-69
2022/06/20 10:14:02;;;;;;;4.75;4.00;;;;;;;;;;5012118;28;20805;-70
2022/06/20 10:16:34;;;;;;;6.10;4.40;;;;;;;;;;5024254;28;20435;-69
2022/06/20 10:19:03;;;;;;;6.45;4.68;;;;;;;;;;5013550;28;20433;-69
2022/06/20 10:21:33;;;;;;;6.82;4.90;;;;;;;;;;5020514;28;21317;-69
2022/06/20 10:24:11;;;;;;;7.78;5.68;;;;;;;;;;5012872;28;20512;-69
2022/06/20 10:26:54;;;;;;;7.38;4.90;;;;;;;;;;5019288;28;20453;-66
2022/06/20 10:29:24;;;;;;;7.53;6.00;;;;;;;;;;5013623;28;20425;-66
2022/06/20 10:31:56;;;;;;;5.80;5.20;;;;;;;;;;5017034;28;20445;-67
2022/06/20 10:34:29;;;;;;;7.30;5.05;;;;;;;;;;5017075;28;20838;-65
2022/06/20 10:37:01;;;;;;;6.50;4.50;;;;;;;;;;5018722;28;20439;-67
2022/06/20 10:39:37;;;;;;;7.35;4.90;;;;;;;;;;5019699;28;20457;-67
2022/06/20 10:42:14;;;;;;;9.45;5.20;;;;;;;;;;5017334;28;20439;-67
2022/06/20 10:44:48;;;;;;;6.75;5.57;;;;;;;;;;5021543;28;20555;-69
2022/06/20 10:47:20;;;;;;;8.47;5.30;;;;;;;;;;5015334;28;20429;-69
2022/06/20 10:49:56;;;;;;;6.93;6.00;;;;;;;;;;5019199;28;20421;-69
2022/06/20 10:52:40;;;;;;;10.47;7.00;;;;;;;;;;5016018;28;20910;-69
2022/06/20 10:55:12;;;;;;;7.80;7.10;;;;;;;;;;5010343;28;20431;-70
2022/06/20 10:57:46;;;;;;;8.65;7.75;;;;;;;;;;5012742;28;20435;-70
2022/06/20 11:00:16;;;;;;;9.48;8.68;;;;;;;;;;5015405;28;20427;-70
2022/06/20 11:02:54;;;;;;;11.00;9.80;;;;;;;;;;5014823;28;20557;-70
2022/06/20 11:05:25;;;;;;;10.20;9.40;;;;;;;;;;5008718;28;20447;-70
2022/06/20 11:07:56;;;;;;;10.13;9.13;;;;;;;;;;5021307;28;20437;-69
2022/06/20 11:10:44;;;;;;;9.85;8.85;;;;;;;;;;5025910;28;20426;-69
2022/06/20 11:13:18;;;;;;;8.95;8.05;;;;;;;;;;5019264;28;20429;-70
2022/06/20 11:15:51;;;;;;;9.63;8.67;;;;;;;;;;5017615;28;21128;-69
2022/06/20 11:18:31;;;;;;;9.13;8.20;;;;;;;;;;5009879;28;20440;-70
2022/06/20 11:21:01;;;;;;;9.27;8.37;;;;;;;;;;5006187;28;20441;-69
2022/06/20 11:23:34;;;;;;;9.25;8.45;;;;;;;;;;5044010;22;20709;-63
2022/06/20 11:26:04;;;;;;;8.68;7.90;;;;;;;;;;5041443;28;20437;-60
2022/06/20 11:28:46;;;;;;;10.18;8.60;;;;;;;;;;5040547;28;20490;-72
2022/06/20 11:31:20;;;;;;;9.80;8.70;;;;;;;;;;5035136;28;20437;-72
2022/06/20 11:34:06;;;;;;;9.98;8.98;;;;;;;;;;5035554;28;20518;-72
2022/06/20 11:36:37;;;;;;;8.48;7.60;;;;;;;;;;5041819;28;20433;-73
2022/06/20 11:39:09;;;;;;;9.75;7.28;;;;;;;;;;5041885;28;20990;-73
2022/06/20 11:41:39;;;;;;;9.17;7.37;;;;;;;;;;5049659;28;20416;-72
2022/06/20 11:44:17;;;;;;;7.80;6.90;;;;;;;;;;5040838;28;21160;-72
2022/06/20 11:46:52;;;;;;;7.40;6.38;;;;;;;;;;5047054;28;20509;-73
2022/06/20 11:49:26;;;;;;;8.32;6.55;;;;;;;;;;5048276;28;20452;-74
2022/06/20 11:51:56;;;;;;;8.18;6.85;;;;;;;;;;5049460;28;20433;-73
2022/06/20 11:54:31;;;;;;;8.37;5.93;;;;;;;;;;5040820;28;20546;-73
2022/06/20 11:57:02;;;;;;;8.25;7.07;;;;;;;;;;5047712;28;20507;-73
2022/06/20 11:59:35;;;;;;;7.72;6.93;;;;;;;;;;5048386;28;20436;-73
2022/06/20 12:02:13;;;;;;;7.65;6.10;;;;;;;;;;5045420;28;20433;-73
2022/06/20 12:04:43;;;;;;;9.23;6.38;;;;;;;;;;5048438;28;20429;-73
2022/06/20 12:07:12;;;;;;;7.28;6.40;;;;;;;;;;5039987;28;20430;-74
2022/06/20 12:09:44;;;;;;;7.65;6.15;;;;;;;;;;5044582;28;20433;-73
2022/06/20 12:12:30;;;;;;;6.95;6.20;;;;;;;;;;5043945;28;20433;-73
2022/06/20 12:15:03;;;;;;;9.38;6.38;;;;;;;;;;5041736;28;20444;-71
2022/06/20 12:17:35;;;;;;;6.78;6.10;;;;;;;;;;5042512;28;20454;-73
2022/06/20 12:23:21;;;;;;;6.13;5.53;;;;;;;;;;5047661;28;20502;-73
2022/06/20 12:25:51;;;;;;;6.10;5.50;;;;;;;;;;5040953;28;20428;-72
2022/06/20 12:28:20;;;;;;;8.60;5.90;;;;;;;;;;5042792;28;20940;-74
2022/06/20 12:30:47;;;;;;;5.75;5.15;;;;;;;;;;5042810;28;20409;-72
2022/06/20 12:33:16;;;;;;;6.07;4.65;;;;;;;;;;5042061;28;21009;-73
2022/06/20 12:35:46;;;;;;;6.15;5.55;;;;;;;;;;5046401;28;20437;-73
2022/06/20 12:38:15;;;;;;;6.17;5.00;;;;;;;;;;5041911;28;20509;-72
2022/06/20 12:40:45;;;;;;;5.60;5.00;;;;;;;;;;5048108;28;20429;-72
2022/06/20 12:43:14;;;;;;;4.85;4.30;;;;;;;;;;5047711;28;20953;-72
2022/06/20 12:45:59;;;;;;;4.40;4.00;;;;;;;;;;5046548;28;20927;-72
2022/06/20 12:48:37;;;;;;;4.75;3.20;;;;;;;;;;5051860;28;20443;-73
2022/06/20 12:51:06;;;;;;;3.57;3.10;;;;;;;;;;5054132;28;20768;-71
2022/06/20 12:53:40;;;;;;;4.47;3.13;;;;;;;;;;5049266;28;20441;-72
2022/06/20 12:56:11;;;;;;;4.10;3.17;;;;;;;;;;5045831;28;20949;-71
2022/06/20 12:58:49;;;;;;;3.47;2.95;;;;;;;;;;5046736;28;20480;-72
2022/06/20 13:01:19;;;;;;;3.00;2.30;;;;;;;;;;5042150;28;20814;-72
2022/06/20 13:03:59;;;;;;;3.08;2.05;;;;;;;;;;5041562;28;20907;-72
2022/06/20 13:06:34;;;;;;;2.80;2.13;;;;;;;;;;5040783;28;20421;-72
2022/06/20 13:09:09;;;;;;;2.22;1.70;;;;;;;;;;5042925;28;20437;-72
2022/06/20 13:11:42;;;;;;;3.10;1.88;;;;;;;;;;5045193;28;20428;-72
2022/06/20 13:14:15;;;;;;;2.47;1.50;;;;;;;;;;5042740;28;20433;-72
2022/06/20 13:16:47;;;;;;;2.13;1.40;;;;;;;;;;5039755;28;20438;-72
2022/06/20 13:19:23;;;;;;;4.78;2.30;;;;;;;;;;5037344;28;20433;-72
2022/06/20 13:21:51;;;;;;;2.85;1.80;;;;;;;;;;5041852;28;20437;-73
2022/06/20 13:24:38;;;;;;;3.10;1.30;;;;;;;;;;5044821;28;20428;-72
2022/06/20 13:27:12;;;;;;;2.10;1.45;;;;;;;;;;5043254;28;20900;-72
2022/06/20 13:29:43;;;;;;;2.80;1.63;;;;;;;;;;5046619;28;20461;-72
2022/06/20 13:32:15;;;;;;;3.37;1.80;;;;;;;;;;5046086;28;20441;-72
2022/06/20 13:34:52;;;;;;;2.05;1.50;;;;;;;;;;5045864;28;20433;-72
2022/06/20 13:37:35;;;;;;;2.80;2.60;;;;;;;;;;5041220;28;20433;-73
2022/06/20 13:40:05;;;;;;;2.50;1.58;;;;;;;;;;5043929;28;20431;-73
2022/06/20 13:42:33;;;;;;;2.60;1.40;;;;;;;;;;5038505;28;20517;-73
2022/06/20 13:45:06;;;;;;;2.90;1.50;;;;;;;;;;5043559;28;20433;-72
2022/06/20 13:47:34;;;;;;;1.52;1.00;;;;;;;;;;5047262;28;20441;-73
2022/06/20 13:50:15;;;;;;;3.10;1.77;;;;;;;;;;5040575;28;20915;-72
2022/06/20 13:52:47;;;;;;;2.55;1.30;;;;;;;;;;5041599;28;20448;-72
2022/06/20 13:55:16;;;;;;;3.03;1.40;;;;;;;;;;5045478;28;20499;-73
2022/06/20 13:57:46;;;;;;;3.33;1.70;;;;;;;;;;5046463;28;20437;-75
2022/06/20 14:00:21;;;;;;;2.92;1.60;;;;;;;;;;5046267;28;20907;-72
2022/06/20 14:02:49;;;;;;;3.70;2.20;;;;;;;;;;5041626;28;20421;-72
2022/06/20 14:05:19;;;;;;;3.70;1.80;;;;;;;;;;5041394;28;20761;-72
2022/06/20 14:07:47;;;;;;;2.35;1.50;;;;;;;;;;5041741;28;20441;-73
2022/06/20 14:10:23;;;;;;;3.17;1.42;;;;;;;;;;5046026;28;20425;-73
2022/06/20 14:12:52;;;;;;;5.00;1.50;;;;;;;;;;5046091;28;20479;-73
2022/06/20 14:15:22;;;;;;;2.92;1.70;;;;;;;;;;5041603;28;20443;-72
2022/06/20 14:17:52;;;;;;;3.95;2.00;;;;;;;;;;5044598;28;20437;-72
2022/06/20 14:20:22;;;;;;;3.13;1.50;;;;;;;;;;5042419;28;20523;-73
2022/06/20 14:22:50;;;;;;;2.70;1.40;;;;;;;;;;5046535;28;20433;-72
2022/06/20 14:25:27;;;;;;;2.10;1.58;;;;;;;;;;5045670;28;20513;-73
2022/06/20 14:27:55;;;;;;;2.72;1.50;;;;;;;;;;5045285;28;20437;-72
2022/06/20 14:30:26;;;;;;;2.63;1.50;;;;;;;;;;5043450;28;20425;-73
2022/06/20 14:32:56;;;;;;;1.95;1.50;;;;;;;;;;5040081;28;20430;-72
2022/06/20 14:35:27;;;;;;;3.53;1.50;;;;;;;;;;5044278;28;20443;-73
2022/06/20 14:37:59;;;;;;;2.35;1.60;;;;;;;;;;5042983;28;20429;-72
2022/06/20 14:40:28;;;;;;;2.13;1.70;;;;;;;;;;5039705;28;20536;-73
2022/06/20 14:43:02;;;;;;;3.47;1.40;;;;;;;;;;5046881;28;20890;-73
2022/06/20 14:45:34;;;;;;;3.63;1.90;;;;;;;;;;5034002;28;20516;-72
2022/06/20 14:48:03;;;;;;;2.40;1.88;;;;;;;;;;5046774;28;20424;-72
2022/06/20 14:50:34;;;;;;;2.33;1.63;;;;;;;;;;5040857;28;20418;-72
2022/06/20 14:53:05;;;;;;;2.13;1.63;;;;;;;;;;5039934;28;20440;-72
2022/06/20 14:55:36;;;;;;;2.50;1.92;;;;;;;;;;5043891;28;20478;-72
2022/06/20 14:58:05;;;;;;;3.55;1.90;;;;;;;;;;5047863;28;20433;-72
2022/06/20 15:00:37;;;;;;;2.70;2.00;;;;;;;;;;5047531;28;20938;-72
2022/06/20 15:03:16;;;;;;;2.70;1.88;;;;;;;;;;5047188;28;20428;-73
2022/06/20 15:05:51;;;;;;;1.80;1.60;;;;;;;;;;5039429;28;20418;-69
2022/06/20 15:08:21;;;;;;;4.47;1.73;;;;;;;;;;5041715;28;20425;-70
2022/06/20 15:10:50;;;;;;;3.13;2.10;;;;;;;;;;5046887;28;21048;-69